Airport View

Enter AWOS ICAO identifier for current METAR.

ex. KFNL

KMER 262045Z 00000KT 10SM SKC 25/07 A3031

26 Feb 2020 23:41

Frequency: 124.475

Phone: 209-725-0104

Other Area AWOS: KMCE - KMOD - KMAE - KO22

TAF KMER 261720Z 2618/2718 VRB03KT P6SM SKC